createdAt,value
2022-08-05T00:01:49.085Z,28.38
2022-08-05T00:03:54.680Z,28.35
2022-08-05T00:06:22.105Z,28.34
2022-08-05T00:08:34.934Z,28.30
2022-08-05T00:10:40.826Z,28.29
2022-08-05T00:12:56.350Z,28.19
2022-08-05T00:15:54.251Z,28.21
2022-08-05T00:17:29.706Z,28.20
2022-08-05T00:19:45.688Z,28.19
2022-08-05T00:21:59.695Z,28.21
2022-08-05T00:24:10.917Z,28.19
2022-08-05T00:26:20.900Z,28.20
2022-08-05T00:28:29.747Z,28.17
2022-08-05T00:30:37.527Z,28.19
2022-08-05T00:32:45.995Z,28.18
2022-08-05T00:35:03.941Z,28.15
2022-08-05T00:37:14.021Z,28.14
2022-08-05T00:39:19.428Z,28.11
2022-08-05T00:41:54.929Z,28.07
2022-08-05T00:43:55.544Z,28.02
2022-08-05T00:46:03.172Z,28.01
2022-08-05T00:48:10.812Z,27.96
2022-08-05T00:50:16.244Z,27.96
2022-08-05T00:52:28.795Z,27.95
2022-08-05T00:54:33.936Z,27.94
2022-08-05T00:56:38.835Z,27.93
2022-08-05T00:58:56.207Z,27.93
2022-08-05T01:01:08.631Z,27.92
2022-08-05T01:03:22.539Z,27.91
2022-08-05T01:05:28.660Z,27.87
2022-08-05T01:07:33.585Z,27.87
2022-08-05T01:09:38.260Z,27.82
2022-08-05T01:11:44.426Z,27.79
2022-08-05T01:14:08.447Z,27.81
2022-08-05T01:16:26.506Z,27.77
2022-08-05T01:18:36.776Z,27.75
2022-08-05T01:20:52.926Z,27.77
2022-08-05T01:23:14.453Z,27.75
2022-08-05T01:25:41.102Z,27.67
2022-08-05T01:28:02.812Z,27.58
2022-08-05T01:30:18.670Z,27.56
2022-08-05T01:32:27.653Z,27.56
2022-08-05T01:34:37.839Z,27.56
2022-08-05T01:36:47.912Z,27.54
2022-08-05T01:38:53.180Z,27.54
2022-08-05T01:41:01.945Z,27.54
2022-08-05T01:43:21.886Z,27.54
2022-08-05T01:45:35.058Z,27.47
2022-08-05T01:47:49.424Z,27.46
2022-08-05T01:50:03.010Z,27.48
2022-08-05T01:52:17.542Z,27.45
2022-08-05T01:54:27.430Z,27.44
2022-08-05T01:58:11.440Z,27.43
2022-08-05T01:59:05.107Z,27.40
2022-08-05T02:01:10.883Z,27.36
2022-08-05T02:03:29.222Z,27.35
2022-08-05T02:05:39.901Z,27.31
2022-08-05T02:08:00.242Z,27.26
2022-08-05T02:10:09.007Z,27.25
2022-08-05T02:12:22.851Z,27.25
2022-08-05T02:14:36.975Z,27.23
2022-08-05T02:16:52.842Z,27.19
2022-08-05T02:19:07.040Z,27.17
2022-08-05T02:21:16.895Z,27.15
2022-08-05T02:23:25.402Z,27.12
2022-08-05T02:25:49.855Z,27.06
2022-08-05T02:28:00.331Z,27.01
2022-08-05T02:30:11.701Z,26.97
2022-08-05T02:32:24.116Z,26.96
2022-08-05T02:34:37.989Z,26.90
2022-08-05T02:36:51.168Z,26.88
2022-08-05T02:38:59.757Z,26.85
2022-08-05T02:41:17.248Z,26.83
2022-08-05T02:43:24.525Z,26.81
2022-08-05T02:45:52.382Z,26.79
2022-08-05T02:48:12.309Z,26.74
2022-08-05T02:50:18.452Z,26.71
2022-08-05T02:52:29.918Z,26.70
2022-08-05T02:54:37.716Z,26.70
2022-08-05T02:56:47.161Z,26.66
2022-08-05T02:58:54.916Z,26.59
2022-08-05T03:01:04.747Z,26.52
2022-08-05T03:03:10.929Z,26.48
2022-08-05T03:05:17.994Z,26.41
2022-08-05T03:07:59.285Z,26.38
2022-08-05T03:09:53.151Z,26.34
2022-08-05T03:11:58.430Z,26.32
2022-08-05T03:14:04.165Z,26.25
2022-08-05T03:16:11.807Z,25.41
2022-08-05T03:18:29.851Z,25.33
2022-08-05T03:20:35.078Z,25.47
2022-08-05T03:22:46.917Z,25.53
2022-08-05T03:24:55.582Z,25.66
2022-08-05T03:27:07.693Z,25.76
2022-08-05T03:29:12.600Z,25.82
2022-08-05T03:31:55.397Z,25.93
2022-08-05T03:33:52.674Z,26.03
2022-08-05T03:35:59.609Z,26.14
2022-08-05T03:38:05.428Z,26.23
2022-08-05T03:40:13.248Z,26.31
2022-08-05T03:42:20.463Z,26.38
2022-08-05T03:44:25.443Z,26.46
2022-08-05T03:46:36.555Z,26.52
2022-08-05T03:48:41.469Z,26.57
2022-08-05T03:50:54.911Z,26.62
2022-08-05T03:55:00.456Z,26.61
2022-08-05T03:56:04.086Z,26.67
2022-08-05T03:58:04.140Z,26.66
2022-08-05T04:00:15.990Z,26.63
2022-08-05T04:02:38.993Z,26.65
2022-08-05T04:04:51.857Z,26.55
2022-08-05T04:06:59.243Z,26.52
2022-08-05T04:09:06.048Z,26.49
2022-08-05T04:11:11.581Z,26.50
2022-08-05T04:13:18.731Z,26.46
2022-08-05T04:15:24.290Z,26.42
2022-08-05T04:17:55.806Z,26.32
2022-08-05T04:19:57.237Z,26.36
2022-08-05T04:22:08.864Z,26.41
2022-08-05T04:24:19.119Z,26.43
2022-08-05T04:26:27.318Z,26.36
2022-08-05T04:28:37.552Z,26.27
2022-08-05T04:30:56.335Z,26.18
2022-08-05T04:33:03.646Z,26.14
2022-08-05T04:35:17.782Z,26.11
2022-08-05T04:38:02.830Z,26.01
2022-08-05T04:39:52.962Z,25.89
2022-08-05T04:42:00.589Z,25.89
2022-08-05T04:44:09.996Z,25.83
2022-08-05T04:46:28.403Z,25.83
2022-08-05T04:48:36.301Z,25.88
2022-08-05T04:51:01.681Z,25.89
2022-08-05T04:53:07.732Z,25.88
2022-08-05T04:55:14.246Z,25.89
2022-08-05T04:57:20.046Z,25.91
2022-08-05T04:59:39.118Z,25.90
2022-08-05T05:02:08.306Z,25.87
2022-08-05T05:04:13.203Z,25.85
2022-08-05T05:06:38.685Z,25.78
2022-08-05T05:08:44.934Z,25.71
2022-08-05T05:10:56.666Z,25.67
2022-08-05T05:13:03.896Z,25.62
2022-08-05T05:15:10.804Z,25.58
2022-08-05T05:17:19.879Z,25.55
2022-08-05T05:19:37.162Z,25.52
2022-08-05T05:21:49.145Z,25.55
2022-08-05T05:24:04.090Z,25.53
2022-08-05T05:26:13.975Z,25.51
2022-08-05T05:28:20.295Z,25.49
2022-08-05T05:30:30.410Z,25.49
2022-08-05T05:32:36.472Z,25.47
2022-08-05T05:34:43.975Z,25.53
2022-08-05T05:36:48.790Z,25.52
2022-08-05T05:38:57.229Z,25.59
2022-08-05T05:41:02.335Z,25.79
2022-08-05T05:43:08.664Z,25.97
2022-08-05T05:45:14.209Z,26.15
2022-08-05T05:47:22.183Z,26.28
2022-08-05T05:49:27.377Z,26.34
2022-08-05T05:51:49.600Z,26.45
2022-08-05T05:53:59.509Z,26.59
2022-08-05T05:56:04.826Z,26.70
2022-08-05T05:58:09.690Z,26.77
2022-08-05T06:00:16.169Z,26.98
2022-08-05T06:02:30.998Z,27.19
2022-08-05T06:04:42.590Z,27.44
2022-08-05T06:06:49.817Z,27.51
2022-08-05T06:08:54.661Z,27.66
2022-08-05T06:10:59.564Z,27.76
2022-08-05T06:13:05.410Z,27.69
2022-08-05T06:15:16.547Z,27.53
2022-08-05T06:17:31.049Z,27.36
2022-08-05T06:19:36.057Z,27.36
2022-08-05T06:21:42.257Z,27.33
2022-08-05T06:23:55.311Z,27.38
2022-08-05T06:26:13.690Z,27.25
2022-08-05T06:28:28.461Z,27.19
2022-08-05T06:30:33.626Z,27.25
2022-08-05T06:32:38.731Z,27.19
2022-08-05T06:34:45.646Z,26.98
2022-08-05T06:36:56.938Z,26.77
2022-08-05T06:39:05.271Z,26.69
2022-08-05T06:41:12.026Z,26.52
2022-08-05T06:43:57.957Z,26.47
2022-08-05T06:45:44.662Z,26.39
2022-08-05T06:48:36.309Z,26.31
2022-08-05T06:50:35.634Z,26.38
2022-08-05T06:52:40.604Z,26.49
2022-08-05T06:54:52.035Z,26.51
2022-08-05T06:57:56.845Z,26.46
2022-08-05T06:59:23.264Z,26.55
2022-08-05T07:01:32.741Z,26.57
2022-08-05T07:03:38.138Z,26.70
2022-08-05T07:05:43.010Z,26.75
2022-08-05T07:07:49.060Z,26.84
2022-08-05T07:09:58.423Z,26.85
2022-08-05T07:12:03.490Z,26.75
2022-08-05T07:14:29.337Z,26.63
2022-08-05T07:18:02.423Z,26.69
2022-08-05T07:19:16.041Z,26.84
2022-08-05T07:22:01.093Z,26.97
2022-08-05T07:24:02.619Z,27.16
2022-08-05T07:26:09.951Z,27.37
2022-08-05T07:28:18.848Z,27.57
2022-08-05T07:30:30.625Z,27.75
2022-08-05T07:32:38.329Z,27.96
2022-08-05T07:34:43.197Z,28.20
2022-08-05T07:36:47.978Z,28.39
2022-08-05T07:38:57.242Z,28.40
2022-08-05T07:41:16.732Z,28.59
2022-08-05T07:43:29.997Z,28.59
2022-08-05T07:45:57.738Z,28.76
2022-08-05T07:48:00.986Z,28.80
2022-08-05T07:50:06.835Z,28.55
2022-08-05T07:52:11.672Z,28.47
2022-08-05T07:54:18.858Z,28.67
2022-08-05T07:57:01.155Z,28.92
2022-08-05T07:58:57.691Z,29.08
2022-08-05T08:01:05.926Z,29.25
2022-08-05T08:03:17.117Z,29.38
2022-08-05T08:05:26.792Z,29.49
2022-08-05T08:07:39.445Z,29.53
2022-08-05T08:09:56.635Z,29.22
2022-08-05T08:12:09.164Z,29.24
2022-08-05T08:14:19.262Z,29.29
2022-08-05T08:16:35.120Z,29.25
2022-08-05T08:18:49.896Z,29.29
2022-08-05T08:21:02.241Z,29.39
2022-08-05T08:24:00.011Z,29.39
2022-08-05T08:25:59.004Z,29.36
2022-08-05T08:28:01.555Z,29.17
2022-08-05T08:30:27.741Z,29.00
2022-08-05T08:32:41.706Z,29.01
2022-08-05T08:34:46.934Z,29.14
2022-08-05T08:36:56.729Z,29.38
2022-08-05T08:39:05.255Z,29.27
2022-08-05T08:41:20.818Z,29.36
2022-08-05T08:45:22.070Z,29.53
2022-08-05T08:46:00.670Z,29.56
2022-08-05T08:48:22.596Z,29.30
2022-08-05T08:51:03.751Z,29.40
2022-08-05T08:53:11.910Z,29.54
2022-08-05T08:55:19.531Z,29.58
2022-08-05T08:57:48.456Z,29.89
2022-08-05T09:00:04.407Z,30.12
2022-08-05T09:02:12.010Z,30.09
2022-08-05T09:04:17.213Z,30.03
2022-08-05T09:06:28.211Z,30.00
2022-08-05T09:08:34.703Z,30.06
2022-08-05T09:10:40.244Z,30.16
2022-08-05T09:12:45.224Z,30.17
2022-08-05T09:14:59.708Z,30.24
2022-08-05T09:17:40.040Z,30.21
2022-08-05T09:20:01.486Z,30.23
2022-08-05T09:22:21.747Z,30.31
2022-08-05T09:24:29.731Z,30.18
2022-08-05T09:26:36.794Z,30.11
2022-08-05T09:28:43.469Z,29.95
2022-08-05T09:30:57.081Z,30.00
2022-08-05T09:33:07.250Z,30.21
2022-08-05T09:35:26.355Z,30.32
2022-08-05T09:38:17.266Z,30.52
2022-08-05T09:39:57.370Z,30.64
2022-08-05T09:42:04.557Z,30.78
2022-08-05T09:44:09.465Z,30.88
2022-08-05T09:46:28.584Z,30.89
2022-08-05T09:48:38.428Z,30.93
2022-08-05T09:50:44.954Z,30.95
2022-08-05T09:52:52.896Z,31.08
2022-08-05T09:55:06.381Z,31.19
2022-08-05T09:57:43.318Z,31.32
2022-08-05T09:59:50.825Z,31.37
2022-08-05T10:01:58.276Z,31.25
2022-08-05T10:04:10.638Z,31.17
2022-08-05T10:06:16.108Z,31.26
2022-08-05T10:08:37.282Z,31.40
2022-08-05T10:10:54.235Z,31.55
2022-08-05T10:13:02.722Z,31.62
2022-08-05T10:15:20.428Z,31.52
2022-08-05T10:17:37.239Z,31.44
2022-08-05T10:20:03.718Z,31.49
2022-08-05T10:22:15.634Z,31.51
2022-08-05T10:24:39.811Z,31.57
2022-08-05T10:26:51.578Z,31.54
2022-08-05T10:28:57.408Z,31.46
2022-08-05T10:32:54.988Z,31.53
2022-08-05T10:33:28.903Z,31.47
2022-08-05T10:35:40.594Z,31.45
2022-08-05T10:37:50.483Z,31.34
2022-08-05T10:40:04.475Z,31.26
2022-08-05T10:42:33.468Z,31.42
2022-08-05T10:44:42.030Z,31.58
2022-08-05T10:46:50.688Z,31.73
2022-08-05T10:49:03.925Z,31.86
2022-08-05T10:51:21.751Z,31.88
2022-08-05T10:53:39.478Z,31.79
2022-08-05T10:56:21.633Z,32.01
2022-08-05T10:58:47.663Z,32.25
2022-08-05T11:00:55.245Z,32.38
2022-08-05T11:03:25.730Z,32.19
2022-08-05T11:05:31.769Z,32.21
2022-08-05T11:08:01.131Z,32.34
2022-08-05T11:10:27.628Z,32.43
2022-08-05T11:12:54.450Z,32.41
2022-08-05T11:15:19.217Z,32.52
2022-08-05T11:17:59.015Z,32.42
2022-08-05T11:20:10.796Z,32.40
2022-08-05T11:22:44.718Z,32.36
2022-08-05T11:26:05.595Z,32.37
2022-08-05T11:27:51.831Z,32.44
2022-08-05T11:30:05.492Z,32.46
2022-08-05T11:32:29.448Z,32.50
2022-08-05T11:34:51.739Z,32.47
2022-08-05T11:36:58.854Z,32.35
2022-08-05T11:39:06.679Z,32.29
2022-08-05T11:41:56.525Z,32.46
2022-08-05T11:44:05.113Z,32.72
2022-08-05T11:46:27.451Z,32.91
2022-08-05T11:48:33.043Z,32.99
2022-08-05T11:50:41.948Z,33.20
2022-08-05T11:52:49.511Z,33.34
2022-08-05T11:54:58.430Z,33.50
2022-08-05T11:57:08.047Z,33.55
2022-08-05T11:59:41.354Z,33.59
2022-08-05T12:02:00.890Z,33.63
2022-08-05T12:04:06.160Z,33.73
2022-08-05T12:06:11.393Z,33.49
2022-08-05T12:08:18.167Z,33.20
2022-08-05T12:10:43.326Z,33.04
2022-08-05T12:12:59.299Z,32.78
2022-08-05T12:15:05.033Z,32.68
2022-08-05T12:18:02.502Z,32.68
2022-08-05T12:20:26.488Z,32.66
2022-08-05T12:22:09.918Z,32.71
2022-08-05T12:24:17.603Z,32.77
2022-08-05T12:26:25.203Z,32.63
2022-08-05T12:28:36.768Z,32.63
2022-08-05T12:30:45.815Z,32.64
2022-08-05T12:32:56.337Z,32.71
2022-08-05T12:35:04.181Z,32.65
2022-08-05T12:37:17.349Z,32.61
2022-08-05T12:39:37.429Z,32.69
2022-08-05T12:41:46.686Z,32.60
2022-08-05T12:43:53.451Z,32.63
2022-08-05T12:45:59.301Z,32.65
2022-08-05T12:48:32.363Z,32.57
2022-08-05T12:50:38.160Z,32.58
2022-08-05T12:52:45.746Z,32.69
2022-08-05T12:54:52.106Z,32.67
2022-08-05T12:57:01.722Z,32.66
2022-08-05T12:59:21.077Z,32.55
2022-08-05T13:02:04.167Z,32.53
2022-08-05T13:03:58.185Z,32.44
2022-08-05T13:06:03.872Z,32.53
2022-08-05T13:08:09.010Z,32.52
2022-08-05T13:10:14.992Z,32.65
2022-08-05T13:12:28.661Z,32.68
2022-08-05T13:14:39.587Z,32.65
2022-08-05T13:16:58.746Z,32.63
2022-08-05T13:19:04.631Z,32.50
2022-08-05T13:21:11.681Z,32.52
2022-08-05T13:23:18.182Z,32.53
2022-08-05T13:25:52.229Z,32.60
2022-08-05T13:27:57.480Z,32.77
2022-08-05T13:30:34.733Z,32.82
2022-08-05T13:32:29.317Z,32.98
2022-08-05T13:34:39.031Z,33.16
2022-08-05T13:36:46.597Z,33.05
2022-08-05T13:38:53.669Z,33.06
2022-08-05T13:40:59.330Z,33.21
2022-08-05T13:43:12.217Z,33.42
2022-08-05T13:45:20.804Z,33.60
2022-08-05T13:47:28.124Z,33.62
2022-08-05T13:49:46.530Z,33.73
2022-08-05T13:51:51.508Z,33.89
2022-08-05T13:53:59.628Z,34.10
2022-08-05T13:56:18.127Z,34.27
2022-08-05T13:58:30.883Z,34.39
2022-08-05T14:00:36.632Z,34.19
2022-08-05T14:02:41.505Z,34.07
2022-08-05T14:05:01.200Z,34.18
2022-08-05T14:07:11.973Z,34.35
2022-08-05T14:09:30.322Z,34.13
2022-08-05T14:12:00.289Z,34.01
2022-08-05T14:14:06.751Z,33.92
2022-08-05T14:16:11.859Z,33.91
2022-08-05T14:18:23.230Z,33.70
2022-08-05T14:20:29.647Z,33.53
2022-08-05T14:22:35.147Z,33.45
2022-08-05T14:24:41.446Z,33.29
2022-08-05T14:27:08.371Z,33.27
2022-08-05T14:29:18.974Z,33.46
2022-08-05T14:32:02.356Z,33.43
2022-08-05T14:33:59.514Z,33.38
2022-08-05T14:36:06.317Z,33.57
2022-08-05T14:38:33.299Z,33.86
2022-08-05T14:40:38.869Z,34.11
2022-08-05T14:42:44.276Z,34.10
2022-08-05T14:44:51.961Z,34.12
2022-08-05T14:46:57.329Z,34.08
2022-08-05T14:49:06.888Z,33.96
2022-08-05T14:51:16.256Z,34.00
2022-08-05T14:53:22.596Z,33.99
2022-08-05T14:55:39.437Z,33.97
2022-08-05T14:57:54.397Z,33.99
2022-08-05T15:00:03.928Z,34.16
2022-08-05T15:02:16.142Z,34.23
2022-08-05T15:04:22.296Z,34.31
2022-08-05T15:06:30.258Z,34.52
2022-08-05T15:08:57.904Z,34.57
2022-08-05T15:11:00.175Z,34.58
2022-08-05T15:13:09.975Z,34.87
2022-08-05T15:15:18.218Z,35.09
2022-08-05T15:17:46.984Z,35.10
2022-08-05T15:19:56.185Z,35.00
2022-08-05T15:22:02.533Z,34.98
2022-08-05T15:24:08.425Z,34.72
2022-08-05T15:26:15.505Z,34.65
2022-08-05T15:28:36.721Z,34.52
2022-08-05T15:30:51.546Z,34.35
2022-08-05T15:32:58.074Z,34.46
2022-08-05T15:35:04.120Z,34.57
2022-08-05T15:37:19.357Z,34.76
2022-08-05T15:41:00.359Z,34.71
2022-08-05T15:42:28.557Z,34.85
2022-08-05T15:44:30.947Z,34.65
2022-08-05T15:46:38.492Z,34.69
2022-08-05T15:48:52.459Z,34.85
2022-08-05T15:51:06.009Z,35.17
2022-08-05T15:53:12.559Z,35.41
2022-08-05T15:55:18.955Z,35.44
2022-08-05T15:57:24.089Z,35.37
2022-08-05T15:59:29.168Z,35.38
2022-08-05T16:01:39.876Z,35.24
2022-08-05T16:04:00.476Z,35.34
2022-08-05T16:06:05.375Z,35.21
2022-08-05T16:08:10.241Z,35.09
2022-08-05T16:10:25.332Z,34.92
2022-08-05T16:12:30.283Z,34.70
2022-08-05T16:14:36.206Z,34.34
2022-08-05T16:16:41.609Z,34.07
2022-08-05T16:18:52.549Z,33.79
2022-08-05T16:21:04.315Z,33.49
2022-08-05T16:23:09.774Z,33.20
2022-08-05T16:25:15.393Z,33.16
2022-08-05T16:27:47.127Z,33.01
2022-08-05T16:29:50.148Z,32.94
2022-08-05T16:31:57.789Z,32.90
2022-08-05T16:34:02.794Z,32.87
2022-08-05T16:36:13.470Z,32.77
2022-08-05T16:38:27.877Z,32.65
2022-08-05T16:40:33.272Z,32.49
2022-08-05T16:42:38.441Z,32.42
2022-08-05T16:44:44.392Z,32.32
2022-08-05T16:46:59.382Z,32.21
2022-08-05T16:49:04.317Z,31.94
2022-08-05T16:51:10.931Z,31.63
2022-08-05T16:53:23.273Z,31.57
2022-08-05T16:55:47.011Z,31.37
2022-08-05T16:58:00.460Z,31.00
2022-08-05T17:00:10.607Z,30.97
2022-08-05T17:02:15.736Z,30.82
2022-08-05T17:04:23.700Z,30.67
2022-08-05T17:06:31.142Z,30.56
2022-08-05T17:08:53.374Z,30.59
2022-08-05T17:10:58.949Z,30.62
2022-08-05T17:13:03.976Z,30.56
2022-08-05T17:15:10.318Z,30.61
2022-08-05T17:17:20.630Z,30.65
2022-08-05T17:19:27.569Z,30.57
2022-08-05T17:21:35.721Z,30.60
2022-08-05T17:24:04.371Z,30.66
2022-08-05T17:26:09.270Z,30.58
2022-08-05T17:28:17.509Z,30.58
2022-08-05T17:30:28.224Z,30.65
2022-08-05T17:32:34.767Z,30.56
2022-08-05T17:34:40.258Z,30.53
2022-08-05T17:36:47.577Z,30.40
2022-08-05T17:38:55.149Z,30.35
2022-08-05T17:41:00.571Z,30.08
2022-08-05T17:43:07.757Z,30.04
2022-08-05T17:45:20.694Z,30.10
2022-08-05T17:47:26.325Z,30.16
2022-08-05T17:49:59.876Z,30.18
2022-08-05T17:51:56.177Z,30.17
2022-08-05T17:54:03.342Z,30.07
2022-08-05T17:56:09.484Z,30.08
2022-08-05T17:58:16.441Z,29.94
2022-08-05T18:00:29.303Z,29.82
2022-08-05T18:02:34.479Z,29.79
2022-08-05T18:04:42.243Z,29.72
2022-08-05T18:07:00.539Z,29.56
2022-08-05T18:09:09.578Z,29.58
2022-08-05T18:11:24.838Z,29.60
2022-08-05T18:13:43.745Z,29.53
2022-08-05T18:15:49.350Z,29.53
2022-08-05T18:18:00.481Z,29.44
2022-08-05T18:20:14.893Z,29.40
2022-08-05T18:22:19.907Z,29.35
2022-08-05T18:24:31.609Z,29.39
2022-08-05T18:26:36.550Z,29.41
2022-08-05T18:28:43.337Z,29.39
2022-08-05T18:30:52.558Z,29.32
2022-08-05T18:33:00.303Z,29.24
2022-08-05T18:35:06.267Z,29.10
2022-08-05T18:37:12.566Z,29.01
2022-08-05T18:39:41.944Z,28.88
2022-08-05T18:41:57.573Z,28.81
2022-08-05T18:44:07.769Z,28.77
2022-08-05T18:46:13.913Z,28.81
2022-08-05T18:48:31.390Z,28.82
2022-08-05T18:50:50.356Z,28.79
2022-08-05T18:52:57.750Z,28.83
2022-08-05T18:55:02.520Z,28.85
2022-08-05T18:57:15.333Z,28.89
2022-08-05T18:59:44.113Z,28.78
2022-08-05T19:01:47.962Z,28.74
2022-08-05T19:04:01.742Z,28.72
2022-08-05T19:06:19.153Z,28.61
2022-08-05T19:08:30.668Z,28.57
2022-08-05T19:10:36.280Z,28.60
2022-08-05T19:12:46.062Z,28.44
2022-08-05T19:15:00.591Z,28.36
2022-08-05T19:17:09.106Z,28.39
2022-08-05T19:19:21.031Z,28.38
2022-08-05T19:21:26.015Z,28.29
2022-08-05T19:24:07.341Z,28.14
2022-08-05T19:26:01.665Z,28.06
2022-08-05T19:28:10.720Z,27.82
2022-08-05T19:30:17.068Z,27.64
2022-08-05T19:32:26.383Z,27.56
2022-08-05T19:34:32.846Z,27.52
2022-08-05T19:36:37.811Z,27.38
2022-08-05T19:38:43.879Z,27.32
2022-08-05T19:40:48.893Z,27.35
2022-08-05T19:43:04.553Z,27.37
2022-08-05T19:45:14.620Z,27.24
2022-08-05T19:47:19.944Z,27.08
2022-08-05T19:49:28.706Z,26.94
2022-08-05T19:52:04.767Z,26.80
2022-08-05T19:54:04.525Z,26.85
2022-08-05T19:56:15.024Z,26.86
2022-08-05T19:58:29.433Z,26.81
2022-08-05T20:00:37.577Z,26.69
2022-08-05T20:02:43.087Z,26.58
2022-08-05T20:04:48.604Z,26.36
2022-08-05T20:06:53.470Z,26.19
2022-08-05T20:09:06.169Z,26.20
2022-08-05T20:11:19.451Z,26.16
2022-08-05T20:13:30.054Z,26.09
2022-08-05T20:15:56.954Z,26.11
2022-08-05T20:18:09.814Z,25.92
2022-08-05T20:20:16.357Z,25.92
2022-08-05T20:22:21.197Z,25.36
2022-08-05T20:24:28.459Z,24.87
2022-08-05T20:26:33.295Z,24.67
2022-08-05T20:28:39.093Z,24.53
2022-08-05T20:30:45.062Z,24.54
2022-08-05T20:32:52.559Z,24.49
2022-08-05T20:34:57.572Z,24.47
2022-08-05T20:37:02.808Z,24.42
2022-08-05T20:39:12.987Z,24.39
2022-08-05T20:41:24.170Z,24.35
2022-08-05T20:43:58.003Z,24.36
2022-08-05T20:45:57.366Z,24.35
2022-08-05T20:48:08.669Z,24.31
2022-08-05T20:50:14.166Z,24.24
2022-08-05T20:52:20.346Z,24.22
2022-08-05T20:54:25.516Z,24.23
2022-08-05T20:56:48.873Z,24.11
2022-08-05T20:58:53.919Z,24.08
2022-08-05T21:00:58.851Z,23.89
2022-08-05T21:03:06.933Z,23.85
2022-08-05T21:05:15.289Z,23.73
2022-08-05T21:07:20.182Z,23.73
2022-08-05T21:09:27.239Z,23.91
2022-08-05T21:12:06.952Z,23.97
2022-08-05T21:13:57.328Z,24.04
2022-08-05T21:16:03.713Z,24.00
2022-08-05T21:18:08.731Z,23.85
2022-08-05T21:20:33.465Z,23.70
2022-08-05T21:22:39.207Z,23.33
2022-08-05T21:24:44.449Z,21.50
2022-08-05T21:26:58.550Z,20.74
2022-08-05T21:29:04.059Z,20.55
2022-08-05T21:31:09.408Z,20.00
2022-08-05T21:33:22.034Z,20.05
2022-08-05T21:35:55.411Z,19.85
2022-08-05T21:37:54.914Z,19.99
2022-08-05T21:40:00.227Z,20.02
2022-08-05T21:42:05.672Z,19.96
2022-08-05T21:44:11.118Z,20.03
2022-08-05T21:46:20.420Z,19.76
2022-08-05T21:48:25.855Z,19.65
2022-08-05T21:50:33.524Z,19.70
2022-08-05T21:52:38.464Z,19.67
2022-08-05T21:54:55.185Z,19.60
2022-08-05T21:57:31.218Z,19.38
2022-08-05T21:59:30.466Z,19.44
2022-08-05T22:01:47.489Z,19.41
2022-08-05T22:03:55.242Z,19.41
2022-08-05T22:06:05.072Z,19.48
2022-08-05T22:08:22.438Z,19.59
2022-08-05T22:10:29.336Z,19.32
2022-08-05T22:12:40.322Z,19.17
2022-08-05T22:14:50.142Z,19.15
2022-08-05T22:16:56.943Z,19.36
2022-08-05T22:19:03.866Z,19.08
2022-08-05T22:21:31.454Z,18.63
2022-08-05T22:24:02.625Z,18.66
2022-08-05T22:26:26.128Z,18.78
2022-08-05T22:28:32.844Z,19.02
2022-08-05T22:30:55.805Z,19.07
2022-08-05T22:33:03.067Z,19.26
2022-08-05T22:35:08.604Z,19.42
2022-08-05T22:37:16.234Z,19.44
2022-08-05T22:39:21.500Z,19.53
2022-08-05T22:42:10.589Z,19.44
2022-08-05T22:43:51.471Z,19.27
2022-08-05T22:45:56.315Z,19.22
2022-08-05T22:48:03.354Z,19.37
2022-08-05T22:50:21.357Z,19.48
2022-08-05T22:52:34.351Z,19.47
2022-08-05T22:54:39.821Z,19.50
2022-08-05T22:56:54.001Z,19.16
2022-08-05T22:59:03.189Z,19.06
2022-08-05T23:01:25.461Z,18.96
2022-08-05T23:03:57.692Z,18.85
2022-08-05T23:06:04.406Z,18.62
2022-08-05T23:08:14.582Z,18.59
2022-08-05T23:10:20.895Z,18.35
2022-08-05T23:12:32.884Z,18.66
2022-08-05T23:14:38.140Z,18.65
2022-08-05T23:16:55.671Z,18.55
2022-08-05T23:19:03.132Z,18.69
2022-08-05T23:21:16.544Z,18.46
2022-08-05T23:23:24.215Z,18.49
2022-08-05T23:25:51.503Z,18.18
2022-08-05T23:28:00.804Z,18.46
2022-08-05T23:30:08.014Z,18.70
2022-08-05T23:32:13.299Z,18.79
2022-08-05T23:34:24.732Z,18.93
2022-08-05T23:36:40.119Z,18.81
2022-08-05T23:38:52.245Z,18.73
2022-08-05T23:40:57.389Z,18.97
2022-08-05T23:43:02.192Z,19.08
2022-08-05T23:45:27.059Z,19.02
2022-08-05T23:47:38.491Z,18.83
2022-08-05T23:49:56.349Z,18.83
2022-08-05T23:52:13.742Z,19.04
2022-08-05T23:54:26.120Z,18.99
2022-08-05T23:56:31.602Z,19.06
2022-08-05T23:58:36.479Z,18.86
